Elmira, Michigan
Current Conditions -  °F | °C
As of 6:32 AM on Friday 24 Oct 2014 (Local Time) from KGLR Reporting Station
Overcast Overcast  
Wind Chill: 43°   Ceiling: 3300
Heat Index: 43°   Visibility: 10mi
Dew Point: 40°   Wind: 0mph
Humidity: 89%   Direction: NA
Pressure: 30.01"   Gusts: NA
Location:  45.06°N, 84.86°W
Report Text: KGLR 241032Z AUTO 00000KT 10SM FEW022 OVC033 06/04 A3001 RMK AO2 T00610044
Loading
Personal Weather Stations






























Interactive Weather Map
Tropical Storm Tracking
New forecast layout! Learn more

10-Day Weather Forecast

Advertisements
Track Severe Weather on mobile